createdAt,value
2023-04-09T00:14:58.338Z,96077
2023-04-09T00:16:00.619Z,96074.9
2023-04-09T00:17:02.623Z,96075.6
2023-04-09T00:18:04.606Z,96070.8
2023-04-09T00:19:06.422Z,96075.3
2023-04-09T00:20:08.115Z,96074.7
2023-04-09T00:21:10.088Z,96070.8
2023-04-09T00:22:11.800Z,96074.6
2023-04-09T00:23:13.910Z,96071.6
2023-04-09T00:24:15.997Z,96073.4
2023-04-09T00:25:18.010Z,96077.6
2023-04-09T00:26:20.157Z,96074.4
2023-04-09T00:27:22.226Z,96071.7
2023-04-09T00:28:24.210Z,96072.8
2023-04-09T00:29:26.315Z,96075.8
2023-04-09T00:30:28.187Z,96073.1
2023-04-09T00:31:30.465Z,96069.6
2023-04-09T00:32:32.796Z,96069.6
2023-04-09T00:33:34.931Z,96072.5
2023-04-09T00:34:36.826Z,96069.8
2023-04-09T00:35:39.068Z,96069.8
2023-04-09T00:36:40.981Z,96072.2
2023-04-09T00:37:42.685Z,96072.3
2023-04-09T00:38:44.784Z,96072.9
2023-04-09T00:39:46.484Z,96069.8
2023-04-09T00:40:48.662Z,96069.8
2023-04-09T00:41:50.578Z,96074.3
2023-04-09T00:42:52.697Z,96072.1
2023-04-09T00:43:54.786Z,96070.9
2023-04-09T00:44:56.896Z,96079
2023-04-09T00:45:58.959Z,96073.4
2023-04-09T02:41:12.890Z,96060.3
2023-04-09T09:15:42.290Z,96154.5
2023-04-09T09:16:45.052Z,96155.3
2023-04-09T20:23:01.024Z,96180.4
2023-04-09T20:24:03.146Z,96181.5
2023-04-09T20:25:05.128Z,96178.9
2023-04-09T22:41:20.591Z,96204
2023-04-09T22:42:22.252Z,96200.5
2023-04-09T22:43:24.393Z,96208.6
2023-04-09T22:44:26.490Z,96207.7
2023-04-09T22:45:28.589Z,96205.2
2023-04-09T22:46:30.452Z,96198.7
2023-04-09T22:47:32.797Z,96207.7
